Time;durP1;ratioP1;P1;durP2;ratioP2;P2;SDS_P1;SDS_P2;PMS_P1;PMS_P2;Temp;Humidity;BMP_temperature;BMP_pressure;BME280_temperature;BME280_humidity;BME280_pressure;Samples;Min_cycle;Max_cycle;Signal;HPM_P1;HPM_P2
2023/08/08 00:01:36;;;;;;;2.20;1.00;;;;;;;15.76;85.41;93816.22;5045662;28;20092;-74
2023/08/08 00:04:01;;;;;;;1.52;0.90;;;;;;;15.74;85.89;93813.09;5045527;28;20260;-74
2023/08/08 00:06:27;;;;;;;1.35;0.80;;;;;;;15.68;86.04;93827.88;5045347;28;20033;-73
2023/08/08 00:08:52;;;;;;;2.13;1.10;;;;;;;15.59;85.16;93821.88;5045491;28;20096;-75
2023/08/08 00:11:18;;;;;;;2.08;0.90;;;;;;;15.44;82.91;93826.88;5045324;28;20033;-76
2023/08/08 00:13:43;;;;;;;1.60;0.98;;;;;;;15.24;79.00;93822.50;5045249;28;20014;-77
2023/08/08 00:16:09;;;;;;;1.80;1.00;;;;;;;15.20;80.85;93816.25;5045197;28;20051;-76
2023/08/08 00:18:35;;;;;;;2.10;1.02;;;;;;;15.09;80.38;93828.63;5045423;28;20040;-76
2023/08/08 00:21:00;;;;;;;2.20;0.98;;;;;;;14.96;80.67;93834.03;5045101;28;20315;-76
2023/08/08 00:23:26;;;;;;;3.05;1.13;;;;;;;14.82;79.60;93828.28;5045073;28;20354;-76
2023/08/08 00:25:52;;;;;;;1.52;0.80;;;;;;;14.74;79.71;93821.94;5045127;28;20045;-76
2023/08/08 00:28:18;;;;;;;2.78;0.80;;;;;;;14.64;79.85;93817.81;5044924;28;20022;-76
2023/08/08 00:30:43;;;;;;;2.72;1.40;;;;;;;14.56;79.61;93824.09;5044963;28;20031;-76
2023/08/08 00:33:09;;;;;;;1.73;0.93;;;;;;;14.47;79.18;93834.16;5045099;28;20067;-74
2023/08/08 00:35:34;;;;;;;1.77;1.08;;;;;;;14.46;79.78;93837.94;5045077;28;20028;-74
2023/08/08 00:38:00;;;;;;;2.85;1.02;;;;;;;14.47;79.06;93842.19;5044963;28;20025;-75
2023/08/08 00:40:25;;;;;;;2.00;0.82;;;;;;;14.41;79.13;93843.50;5044790;28;20208;-74
2023/08/08 00:42:51;;;;;;;1.85;1.15;;;;;;;14.37;79.47;93835.38;5044753;28;20097;-74
2023/08/08 00:45:16;;;;;;;1.73;1.17;;;;;;;14.33;79.97;93828.31;5044803;28;20319;-74
2023/08/08 00:47:41;;;;;;;1.70;1.13;;;;;;;14.38;79.11;93830.78;5044749;28;20341;-74
2023/08/08 00:50:09;;;;;;;2.30;1.25;;;;;;;14.35;78.90;93839.50;5044754;28;20040;-74
2023/08/08 00:52:36;;;;;;;3.67;1.25;;;;;;;14.33;78.92;93833.69;5044666;28;20017;-74
2023/08/08 00:55:01;;;;;;;1.40;1.00;;;;;;;14.23;78.30;93838.41;5044375;28;20025;-74
2023/08/08 00:57:27;;;;;;;1.80;1.10;;;;;;;14.26;78.59;93836.94;5044592;28;20033;-74
2023/08/08 00:59:52;;;;;;;1.58;1.02;;;;;;;14.24;78.43;93839.19;5044477;28;20342;-74
2023/08/08 01:02:18;;;;;;;1.25;0.90;;;;;;;14.24;78.60;93836.50;5044197;28;20025;-76
2023/08/08 01:04:43;;;;;;;1.70;1.13;;;;;;;14.26;78.06;93828.91;5043143;28;20332;-76
2023/08/08 01:07:28;;;;;;;1.77;1.05;;;;;;;14.22;78.48;93831.47;5044301;28;20025;-76
2023/08/08 01:10:04;;;;;;;1.25;0.82;;;;;;;14.17;78.21;93836.28;5044113;28;20053;-75
2023/08/08 01:12:30;;;;;;;2.08;0.90;;;;;;;14.11;78.66;93848.34;5044239;28;20026;-74
2023/08/08 01:14:56;;;;;;;1.85;1.08;;;;;;;14.15;79.06;93855.38;5044131;28;20096;-74
2023/08/08 01:17:23;;;;;;;1.55;0.90;;;;;;;14.11;79.57;93851.03;5042897;28;20048;-74
2023/08/08 01:19:49;;;;;;;1.80;0.90;;;;;;;14.09;80.46;93851.34;5044047;28;20040;-75
2023/08/08 01:22:28;;;;;;;1.98;1.10;;;;;;;14.13;79.80;93857.63;5044047;28;20308;-76
2023/08/08 01:24:54;;;;;;;1.60;0.90;;;;;;;14.12;79.35;93863.31;5043921;28;20096;-76
2023/08/08 01:27:19;;;;;;;1.77;1.10;;;;;;;14.11;78.70;93854.50;5043941;28;20032;-76
2023/08/08 01:29:46;;;;;;;1.38;0.80;;;;;;;14.13;79.04;93862.97;5043762;28;20251;-76
2023/08/08 01:32:11;;;;;;;3.55;0.98;;;;;;;14.08;79.21;93862.41;5043804;28;20180;-74
2023/08/08 01:34:37;;;;;;;1.48;1.00;;;;;;;14.04;78.47;93870.31;5044001;28;20100;-74
2023/08/08 01:37:13;;;;;;;1.48;0.95;;;;;;;14.04;78.93;93871.13;5043803;28;20029;-75
2023/08/08 01:39:40;;;;;;;2.10;1.45;;;;;;;14.04;78.60;93870.31;5043655;28;20026;-75
2023/08/08 01:42:07;;;;;;;1.77;1.10;;;;;;;14.03;78.25;93887.53;5043386;28;20307;-74
2023/08/08 01:44:34;;;;;;;2.45;1.00;;;;;;;14.00;78.58;93882.81;5043390;28;20035;-74
2023/08/08 01:47:00;;;;;;;2.17;1.13;;;;;;;13.94;78.25;93881.47;5042441;28;20121;-74
2023/08/08 01:49:26;;;;;;;1.55;1.10;;;;;;;13.92;78.93;93900.59;5042749;28;20021;-74
2023/08/08 01:51:52;;;;;;;1.63;0.90;;;;;;;13.89;79.11;93901.25;5042000;28;20083;-74
2023/08/08 01:54:18;;;;;;;5.00;1.10;;;;;;;13.80;79.54;93905.94;5043008;28;20063;-74
2023/08/08 01:56:44;;;;;;;2.13;1.10;;;;;;;13.84;79.58;93906.84;5043142;28;20032;-74
2023/08/08 01:59:09;;;;;;;2.10;1.17;;;;;;;13.83;79.51;93914.06;5043416;28;20033;-74
2023/08/08 02:01:34;;;;;;;2.17;1.10;;;;;;;13.88;79.75;93912.28;5043520;28;20022;-74
2023/08/08 02:04:00;;;;;;;2.13;1.42;;;;;;;13.82;79.83;93917.88;5043151;28;20025;-74
2023/08/08 02:06:25;;;;;;;1.90;1.27;;;;;;;13.91;79.63;93914.31;5043216;28;20021;-74
2023/08/08 02:08:51;;;;;;;2.97;1.38;;;;;;;13.93;79.28;93914.78;5043155;28;20028;-74
2023/08/08 02:11:16;;;;;;;2.20;1.42;;;;;;;13.93;79.26;93925.47;5042831;28;20048;-74
2023/08/08 02:13:41;;;;;;;1.75;1.10;;;;;;;13.95;79.15;93921.34;5043136;28;20018;-74
2023/08/08 02:16:07;;;;;;;2.63;1.38;;;;;;;13.93;79.82;93928.94;5042089;28;20051;-74
2023/08/08 02:18:32;;;;;;;1.35;0.95;;;;;;;13.87;79.71;93934.84;5043096;28;20101;-75
2023/08/08 02:20:58;;;;;;;6.13;1.38;;;;;;;13.87;79.80;93930.25;5043004;28;20026;-75
2023/08/08 02:23:23;;;;;;;1.85;1.23;;;;;;;13.84;80.20;93934.41;5042767;28;20227;-75
2023/08/08 02:25:49;;;;;;;2.65;1.27;;;;;;;13.84;80.68;93947.78;5042847;28;20307;-75
2023/08/08 02:28:14;;;;;;;2.38;1.30;;;;;;;13.89;80.44;93948.69;5043055;28;20024;-75
2023/08/08 02:30:40;;;;;;;2.17;1.17;;;;;;;13.87;80.69;93953.59;5042895;28;20319;-74
2023/08/08 02:33:05;;;;;;;2.72;1.52;;;;;;;13.90;80.93;93937.66;5042969;28;20028;-74
2023/08/08 02:35:30;;;;;;;1.88;1.20;;;;;;;13.88;80.54;93941.75;5042904;28;20139;-75
2023/08/08 02:37:56;;;;;;;3.67;1.70;;;;;;;13.89;80.66;93944.13;5042677;28;20078;-74
2023/08/08 02:40:23;;;;;;;1.80;1.20;;;;;;;13.81;80.41;93948.44;5042637;28;20025;-75
2023/08/08 02:42:49;;;;;;;2.42;1.48;;;;;;;13.76;80.81;93942.50;5042650;28;20036;-74
2023/08/08 02:45:14;;;;;;;1.67;1.20;;;;;;;13.80;80.78;93954.94;5042799;28;20021;-74
2023/08/08 02:47:40;;;;;;;2.50;1.27;;;;;;;13.84;80.74;93966.53;5042573;28;20021;-74
2023/08/08 02:50:06;;;;;;;3.55;1.30;;;;;;;13.81;80.46;93961.84;5042788;28;20219;-74
2023/08/08 02:52:31;;;;;;;2.78;1.33;;;;;;;13.84;79.86;93958.50;5042509;28;20091;-74
2023/08/08 02:54:56;;;;;;;2.58;1.30;;;;;;;13.89;79.47;93962.09;5043474;28;20095;-74
2023/08/08 02:57:22;;;;;;;7.65;1.58;;;;;;;13.81;79.25;93969.88;5046877;28;20029;-75
2023/08/08 02:59:47;;;;;;;13.35;1.73;;;;;;;13.88;79.42;93973.91;5046613;28;20029;-75
2023/08/08 03:02:13;;;;;;;2.65;1.30;;;;;;;13.93;79.12;93979.84;5046680;28;20028;-75
2023/08/08 03:04:38;;;;;;;3.15;1.45;;;;;;;13.93;78.64;93963.00;5046563;28;20105;-75
2023/08/08 03:07:04;;;;;;;1.95;1.50;;;;;;;13.94;78.55;93967.22;5046553;28;20025;-74
2023/08/08 03:09:30;;;;;;;6.75;1.75;;;;;;;13.94;79.10;93967.22;5046413;28;20175;-74
2023/08/08 03:11:55;;;;;;;2.65;1.65;;;;;;;13.90;78.57;93966.31;5046493;28;20072;-74
2023/08/08 03:14:21;;;;;;;3.42;1.48;;;;;;;13.90;78.48;93969.00;5046415;28;20315;-75
2023/08/08 03:16:46;;;;;;;2.63;1.75;;;;;;;13.88;78.25;93973.91;5046483;28;20021;-74
2023/08/08 03:19:12;;;;;;;1.77;1.17;;;;;;;13.97;78.67;93971.94;5046269;28;20219;-74
2023/08/08 03:21:37;;;;;;;3.80;1.83;;;;;;;13.96;78.59;93973.84;5046400;28;20021;-74
2023/08/08 03:24:03;;;;;;;2.60;1.60;;;;;;;13.95;78.75;93980.31;5046328;28;20220;-74
2023/08/08 03:26:28;;;;;;;3.65;1.70;;;;;;;13.96;79.18;93981.88;5046228;28;20179;-73
2023/08/08 03:28:54;;;;;;;2.05;1.40;;;;;;;13.94;78.49;93985.97;5046196;28;20030;-74
2023/08/08 03:31:20;;;;;;;2.17;1.58;;;;;;;13.92;78.51;93977.50;5046245;28;20022;-73
2023/08/08 03:33:46;;;;;;;7.18;1.75;;;;;;;13.87;79.07;93988.44;5046106;28;20045;-73
2023/08/08 03:36:11;;;;;;;3.38;1.58;;;;;;;13.77;79.68;93990.41;5046054;28;20026;-73
2023/08/08 03:38:37;;;;;;;3.03;1.60;;;;;;;13.81;79.75;93991.31;5046039;28;20025;-73
2023/08/08 03:41:03;;;;;;;2.95;1.90;;;;;;;13.75;80.33;93995.31;5046189;28;20022;-73
2023/08/08 03:43:29;;;;;;;2.78;1.90;;;;;;;13.77;80.61;93993.06;5045981;28;20027;-74
2023/08/08 03:45:54;;;;;;;3.33;1.67;;;;;;;13.74;79.93;93991.06;5044795;28;20025;-74
2023/08/08 03:48:20;;;;;;;2.13;1.63;;;;;;;13.80;79.19;93997.00;5045731;28;20059;-74
2023/08/08 03:50:46;;;;;;;2.40;1.70;;;;;;;13.79;79.03;93988.16;5045743;28;20021;-74
2023/08/08 03:53:12;;;;;;;3.35;1.90;;;;;;;13.83;78.88;93978.34;5045825;28;20036;-74
2023/08/08 03:55:37;;;;;;;2.65;1.80;;;;;;;13.87;78.68;93973.13;5045778;28;20032;-74
2023/08/08 03:58:03;;;;;;;2.20;1.63;;;;;;;13.96;78.32;93979.19;5045725;28;20044;-74
2023/08/08 04:00:28;;;;;;;2.92;1.85;;;;;;;13.98;77.44;93974.28;5045656;28;20083;-75
2023/08/08 04:02:53;;;;;;;3.05;1.95;;;;;;;13.94;78.53;93977.94;5044211;28;20029;-73
2023/08/08 04:05:19;;;;;;;2.22;1.65;;;;;;;13.97;78.28;93993.38;5045408;28;20079;-74
2023/08/08 04:07:44;;;;;;;2.67;1.75;;;;;;;13.97;77.77;94001.41;5045445;28;20092;-74
2023/08/08 04:10:10;;;;;;;2.50;1.58;;;;;;;13.96;77.84;93995.28;5045189;28;20173;-74
2023/08/08 04:12:36;;;;;;;2.50;1.67;;;;;;;13.94;78.30;94005.53;5045522;28;20112;-74
2023/08/08 04:15:01;;;;;;;3.33;1.60;;;;;;;13.93;76.74;94012.00;5045383;28;20223;-74
2023/08/08 04:17:27;;;;;;;4.53;1.50;;;;;;;13.97;76.06;94004.88;5045392;28;20163;-74
2023/08/08 04:19:52;;;;;;;2.00;1.35;;;;;;;14.01;75.46;94021.06;5045592;28;20338;-74
2023/08/08 04:22:18;;;;;;;2.88;1.90;;;;;;;14.08;75.32;94015.94;5045178;28;20091;-74
2023/08/08 04:24:43;;;;;;;2.65;1.98;;;;;;;14.11;76.82;94017.19;5043972;28;20021;-74
2023/08/08 04:27:08;;;;;;;2.35;1.70;;;;;;;14.21;75.79;94024.81;5045011;28;20017;-75
2023/08/08 04:29:36;;;;;;;2.50;1.67;;;;;;;14.22;76.17;94027.16;5045341;28;20267;-75
2023/08/08 04:32:01;;;;;;;2.50;1.67;;;;;;;14.25;75.76;94026.50;5045043;28;20029;-76
2023/08/08 04:34:27;;;;;;;2.10;1.45;;;;;;;14.28;76.24;94032.31;5045106;28;20097;-73
2023/08/08 04:36:52;;;;;;;3.47;1.88;;;;;;;14.30;75.83;94027.41;5043814;28;20021;-73
2023/08/08 04:39:18;;;;;;;1.80;1.40;;;;;;;14.34;75.37;94029.09;5044348;28;20022;-73
2023/08/08 04:41:43;;;;;;;5.03;1.98;;;;;;;14.32;75.67;94034.00;5044780;28;20014;-73
2023/08/08 04:44:09;;;;;;;7.13;2.20;;;;;;;14.42;75.90;94035.47;5044887;28;20307;-74
2023/08/08 04:46:34;;;;;;;2.85;1.88;;;;;;;14.41;74.97;94018.59;5045164;28;20017;-74
2023/08/08 04:48:59;;;;;;;2.63;1.63;;;;;;;14.42;74.95;94019.38;5044730;28;20024;-74
2023/08/08 04:51:25;;;;;;;6.35;1.90;;;;;;;14.46;75.08;94014.91;5044829;28;20088;-74
2023/08/08 04:53:50;;;;;;;3.72;1.90;;;;;;;14.49;74.47;94011.59;5044612;28;20014;-74
2023/08/08 04:56:15;;;;;;;17.80;2.47;;;;;;;14.56;73.83;94013.75;5044591;28;20028;-74
2023/08/08 04:58:41;;;;;;;3.50;1.85;;;;;;;14.62;73.05;94023.91;5044703;28;20025;-74
2023/08/08 05:01:08;;;;;;;7.65;2.15;;;;;;;14.67;74.04;94038.22;5044613;28;20036;-74
2023/08/08 05:03:34;;;;;;;3.55;2.50;;;;;;;14.70;73.73;94045.59;5044590;28;20025;-74
2023/08/08 05:06:00;;;;;;;4.72;2.00;;;;;;;14.69;74.34;94055.53;5044508;28;20035;-74
2023/08/08 05:08:26;;;;;;;8.68;2.50;;;;;;;14.67;73.52;94065.81;5044358;28;20025;-74
2023/08/08 05:10:51;;;;;;;2.78;1.77;;;;;;;14.53;74.25;94066.13;5044118;28;20053;-74
2023/08/08 05:13:16;;;;;;;2.90;1.75;;;;;;;14.49;74.57;94075.94;5044103;28;20021;-74
2023/08/08 05:15:42;;;;;;;3.33;2.10;;;;;;;14.55;75.40;94088.03;5044236;28;20029;-74
2023/08/08 05:18:07;;;;;;;2.15;1.70;;;;;;;14.57;74.06;94082.34;5043504;28;20040;-74
2023/08/08 05:20:33;;;;;;;2.38;1.58;;;;;;;14.53;73.79;94092.94;5043242;28;20044;-74
2023/08/08 05:22:58;;;;;;;4.90;1.80;;;;;;;14.52;74.27;94098.63;5043777;28;20026;-74
2023/08/08 05:25:24;;;;;;;5.70;1.85;;;;;;;14.47;73.43;94107.69;5044187;28;20036;-74
2023/08/08 05:27:49;;;;;;;3.10;1.70;;;;;;;14.43;73.76;94107.56;5043875;28;20032;-74
2023/08/08 05:30:15;;;;;;;4.38;2.00;;;;;;;14.39;74.24;94101.28;5043774;28;20067;-74
2023/08/08 05:32:40;;;;;;;4.00;1.30;;;;;;;14.33;73.76;94109.84;5043779;28;20045;-74
2023/08/08 05:35:06;;;;;;;2.75;1.98;;;;;;;14.28;74.53;94105.47;5044067;28;20105;-74
2023/08/08 05:37:32;;;;;;;10.55;2.00;;;;;;;14.38;75.06;94109.66;5043815;28;20123;-75
2023/08/08 05:39:57;;;;;;;2.70;1.50;;;;;;;14.54;74.18;94115.97;5043764;28;20037;-75
2023/08/08 05:42:23;;;;;;;5.50;2.20;;;;;;;14.68;74.52;94114.91;5043573;28;20147;-74
2023/08/08 05:44:48;;;;;;;2.92;1.60;;;;;;;14.81;73.52;94127.22;5043808;28;20047;-73
2023/08/08 05:47:49;;;;;;;3.97;1.83;;;;;;;14.96;72.74;94121.22;5042771;28;20219;-74
2023/08/08 05:50:14;;;;;;;9.27;2.20;;;;;;;15.16;73.41;94124.13;5020520;28;20137;-75
2023/08/08 05:52:40;;;;;;;4.00;2.38;;;;;;;15.35;73.23;94128.97;5037815;28;20327;-76
2023/08/08 05:55:05;;;;;;;4.05;1.88;;;;;;;15.48;72.49;94137.78;5043539;28;20021;-76
2023/08/08 05:57:31;;;;;;;4.57;2.05;;;;;;;15.40;70.73;94147.50;5043392;28;20048;-76
2023/08/08 05:59:57;;;;;;;3.65;2.45;;;;;;;15.32;70.38;94138.44;5043557;28;20029;-76
2023/08/08 06:02:22;;;;;;;4.88;2.30;;;;;;;15.35;70.80;94158.50;5043325;28;20079;-74
2023/08/08 06:04:47;;;;;;;7.38;2.63;;;;;;;15.29;71.13;94165.22;5042359;28;20032;-73
2023/08/08 06:07:13;;;;;;;3.30;2.28;;;;;;;15.15;72.02;94157.47;5041467;28;20282;-74
2023/08/08 06:09:38;;;;;;;2.80;2.10;;;;;;;14.97;72.55;94157.66;5041496;28;20393;-73
2023/08/08 06:12:04;;;;;;;3.55;2.30;;;;;;;14.89;72.98;94158.53;5041670;28;20033;-76
2023/08/08 06:14:30;;;;;;;5.55;3.13;;;;;;;14.82;72.54;94155.63;5041612;28;20323;-76
2023/08/08 06:16:57;;;;;;;3.53;2.25;;;;;;;14.88;73.75;94145.44;5041599;28;20574;-75
2023/08/08 06:19:22;;;;;;;2.85;2.15;;;;;;;14.88;72.24;94146.25;5041865;28;20093;-75
2023/08/08 06:21:48;;;;;;;8.02;2.05;;;;;;;14.91;71.20;94145.56;5043088;28;20033;-76
2023/08/08 06:24:14;;;;;;;5.63;2.00;;;;;;;14.95;72.08;94141.09;5042989;28;20064;-75
2023/08/08 06:26:39;;;;;;;3.20;2.20;;;;;;;15.00;71.14;94140.09;5042730;28;20044;-75
2023/08/08 06:29:05;;;;;;;5.88;2.53;;;;;;;15.11;71.09;94141.25;5043048;28;20021;-75
2023/08/08 06:31:31;;;;;;;3.97;2.00;;;;;;;15.16;68.77;94134.88;5042866;28;20224;-75
2023/08/08 06:33:56;;;;;;;2.90;2.10;;;;;;;15.15;67.19;94136.00;5042722;28;20013;-76
2023/08/08 06:36:21;;;;;;;3.08;1.63;;;;;;;15.20;65.11;94123.13;5042800;28;20357;-74
2023/08/08 06:38:47;;;;;;;1.95;1.27;;;;;;;15.31;65.45;94133.44;5042957;28;20097;-74
2023/08/08 06:41:12;;;;;;;3.13;1.67;;;;;;;15.45;66.30;94140.03;5041711;28;20100;-74
2023/08/08 06:43:39;;;;;;;3.45;1.52;;;;;;;15.62;64.62;94128.25;5042656;28;20028;-74
2023/08/08 06:46:04;;;;;;;1.88;1.15;;;;;;;15.69;63.28;94116.91;5042939;28;20028;-73
2023/08/08 06:48:30;;;;;;;3.38;1.80;;;;;;;15.83;63.33;94125.47;5042669;28;20219;-73
2023/08/08 06:50:55;;;;;;;1.73;1.17;;;;;;;15.88;62.83;94126.34;5042643;28;20021;-73
2023/08/08 06:53:21;;;;;;;2.45;1.40;;;;;;;15.91;64.37;94139.88;5041342;28;20216;-74
2023/08/08 06:55:46;;;;;;;3.35;1.40;;;;;;;16.07;63.64;94148.00;5042633;28;20029;-74
2023/08/08 06:58:11;;;;;;;2.15;1.55;;;;;;;15.94;62.87;94168.00;5042693;28;20081;-74
2023/08/08 07:00:37;;;;;;;2.28;1.40;;;;;;;15.78;59.90;94144.50;5042526;28;20388;-73
2023/08/08 07:03:02;;;;;;;6.75;1.13;;;;;;;15.80;61.32;94144.16;5042515;28;20022;-73
2023/08/08 07:05:29;;;;;;;6.63;1.20;;;;;;;15.83;61.45;94144.28;5042435;28;20334;-74
2023/08/08 07:07:54;;;;;;;3.28;1.25;;;;;;;15.87;61.42;94143.59;5042399;28;20025;-74
2023/08/08 07:10:20;;;;;;;3.92;1.30;;;;;;;15.81;62.19;94149.22;5042294;28;20041;-74
2023/08/08 07:12:45;;;;;;;2.40;1.33;;;;;;;15.84;63.09;94139.69;5042318;28;20032;-74
2023/08/08 07:15:11;;;;;;;6.70;1.67;;;;;;;15.93;63.80;94150.28;5042497;28;20393;-74
2023/08/08 07:17:37;;;;;;;4.15;1.75;;;;;;;15.98;63.98;94140.09;5042430;28;20029;-74
2023/08/08 07:20:03;;;;;;;1.63;1.05;;;;;;;15.80;59.13;94157.59;5042654;28;20096;-74
2023/08/08 07:22:29;;;;;;;3.28;1.40;;;;;;;15.64;60.84;94144.81;5042212;28;20219;-74
2023/08/08 07:24:54;;;;;;;3.00;1.20;;;;;;;15.76;60.91;94138.69;5042420;28;20092;-74
2023/08/08 07:27:19;;;;;;;6.13;1.67;;;;;;;15.81;61.19;94143.84;5042444;28;20029;-74
2023/08/08 07:29:45;;;;;;;2.40;1.42;;;;;;;15.83;61.13;94140.78;5042366;28;20028;-73
2023/08/08 07:32:10;;;;;;;2.42;1.50;;;;;;;15.89;61.32;94146.72;5042189;28;20239;-73
2023/08/08 07:34:36;;;;;;;3.17;1.55;;;;;;;15.98;59.37;94142.78;5042494;28;20304;-73
2023/08/08 07:37:02;;;;;;;3.35;1.55;;;;;;;15.99;58.19;94138.94;5042363;28;20363;-73
2023/08/08 07:39:28;;;;;;;3.20;1.20;;;;;;;15.99;59.26;94146.25;5042292;28;20025;-73
2023/08/08 07:41:53;;;;;;;1.70;0.90;;;;;;;16.04;57.93;94154.09;5044328;28;20025;-73
2023/08/08 07:44:19;;;;;;;2.28;0.98;;;;;;;16.18;59.20;94148.31;5045895;28;20088;-73
2023/08/08 07:46:44;;;;;;;3.15;1.05;;;;;;;16.25;56.50;94154.69;5045649;28;20071;-73
2023/08/08 07:49:10;;;;;;;4.15;1.00;;;;;;;16.20;56.45;94144.19;5045833;28;20219;-73
2023/08/08 07:51:35;;;;;;;1.75;1.10;;;;;;;16.18;57.11;94153.69;5045839;28;20048;-74
2023/08/08 07:54:01;;;;;;;1.27;0.88;;;;;;;16.24;57.46;94158.50;5045825;28;20029;-74
2023/08/08 07:56:27;;;;;;;6.55;0.80;;;;;;;16.30;56.98;94142.13;5045501;28;20243;-74
2023/08/08 07:58:52;;;;;;;1.70;1.13;;;;;;;16.39;58.31;94142.75;5045626;28;20029;-73
2023/08/08 08:01:18;;;;;;;1.45;0.75;;;;;;;16.49;57.63;94139.59;5045536;28;20097;-73
2023/08/08 08:03:44;;;;;;;1.85;1.05;;;;;;;16.52;56.80;94141.56;5045546;28;20040;-73
2023/08/08 08:06:09;;;;;;;1.83;0.90;;;;;;;16.64;57.98;94133.44;5044417;28;20021;-74
2023/08/08 08:08:35;;;;;;;2.35;1.33;;;;;;;16.70;57.54;94150.13;5044402;28;20022;-74
2023/08/08 08:11:02;;;;;;;1.70;1.05;;;;;;;16.79;57.86;94149.97;5045266;28;20087;-74
2023/08/08 08:13:27;;;;;;;5.63;1.10;;;;;;;16.84;57.21;94158.59;5045499;28;20038;-74
2023/08/08 08:15:53;;;;;;;1.55;0.80;;;;;;;16.82;54.59;94150.09;5045246;28;20035;-74
2023/08/08 08:18:19;;;;;;;2.10;1.00;;;;;;;16.99;54.64;94153.56;5045195;28;20028;-74
2023/08/08 08:20:45;;;;;;;4.53;1.08;;;;;;;16.94;53.95;94135.78;5045145;28;20047;-74
2023/08/08 08:23:11;;;;;;;1.08;0.70;;;;;;;16.87;54.20;94153.66;5044027;28;20017;-74
2023/08/08 08:25:36;;;;;;;2.60;1.08;;;;;;;16.79;56.57;94140.00;5045484;28;20334;-74
2023/08/08 08:28:02;;;;;;;6.55;1.15;;;;;;;16.85;55.80;94140.53;5044982;28;20021;-74
2023/08/08 08:30:27;;;;;;;1.88;1.20;;;;;;;16.82;54.72;94152.78;5045142;28;20029;-74
2023/08/08 08:32:53;;;;;;;4.05;1.33;;;;;;;16.79;54.56;94145.38;5045035;28;20017;-74
2023/08/08 08:35:19;;;;;;;4.38;1.13;;;;;;;16.80;55.14;94146.16;5044989;28;20246;-74
2023/08/08 08:37:44;;;;;;;3.45;1.40;;;;;;;16.95;54.38;94164.25;5044781;28;20096;-74
2023/08/08 08:40:10;;;;;;;2.88;1.20;;;;;;;17.02;54.91;94136.75;5045069;28;20057;-74
2023/08/08 08:42:38;;;;;;;3.20;1.27;;;;;;;17.20;53.00;94129.13;5044850;28;20049;-74
2023/08/08 08:45:05;;;;;;;3.65;1.20;;;;;;;17.29;52.27;94139.69;5044888;28;20029;-74
2023/08/08 08:47:32;;;;;;;1.65;1.08;;;;;;;17.20;52.51;94140.66;5044674;28;20295;-74
2023/08/08 08:49:58;;;;;;;1.88;1.30;;;;;;;17.17;52.80;94159.41;5044836;28;20021;-74
2023/08/08 08:52:24;;;;;;;2.25;1.42;;;;;;;17.11;51.37;94158.13;5043724;28;20029;-74
2023/08/08 08:54:53;;;;;;;3.25;1.40;;;;;;;17.16;53.84;94147.88;5044498;28;20028;-74
2023/08/08 08:57:23;;;;;;;3.20;1.60;;;;;;;17.25;53.71;94159.25;5044548;28;20021;-74
2023/08/08 08:59:48;;;;;;;2.50;1.40;;;;;;;17.16;54.19;94147.88;5044635;28;20056;-73
2023/08/08 09:02:14;;;;;;;2.20;1.30;;;;;;;17.30;54.97;94144.75;5044472;28;20033;-73
2023/08/08 09:04:40;;;;;;;2.30;1.20;;;;;;;17.38;54.62;94149.19;5044207;28;20075;-73
2023/08/08 09:07:07;;;;;;;2.53;1.55;;;;;;;17.38;54.37;94151.06;5044450;28;20031;-73
2023/08/08 09:09:33;;;;;;;2.13;1.33;;;;;;;17.34;54.12;94152.91;5043297;28;20076;-73
2023/08/08 09:11:58;;;;;;;3.40;1.50;;;;;;;17.26;54.00;94135.81;5043289;28;20098;-73
2023/08/08 09:14:25;;;;;;;2.33;1.33;;;;;;;17.29;53.77;94142.41;5043010;28;20021;-74
2023/08/08 09:16:56;;;;;;;1.90;1.13;;;;;;;17.39;53.38;94149.94;5044355;28;20025;-73
2023/08/08 09:19:22;;;;;;;4.13;1.25;;;;;;;17.36;52.13;94154.13;5044061;28;20052;-74
2023/08/08 09:21:49;;;;;;;2.45;1.00;;;;;;;17.33;53.33;94156.72;5044100;28;20075;-74
2023/08/08 09:24:14;;;;;;;1.75;1.00;;;;;;;17.18;50.98;94158.31;5044095;28;20270;-74
2023/08/08 09:26:42;;;;;;;2.08;1.27;;;;;;;17.19;53.62;94149.09;5043994;28;20025;-74
2023/08/08 09:29:08;;;;;;;1.92;1.02;;;;;;;17.40;52.58;94156.88;5043973;28;20031;-74
2023/08/08 09:31:34;;;;;;;2.28;1.35;;;;;;;17.54;52.71;94149.13;5042913;28;20310;-74
2023/08/08 09:34:01;;;;;;;2.28;1.20;;;;;;;17.39;53.44;94166.88;5043895;28;20021;-74
2023/08/08 09:36:27;;;;;;;1.90;1.20;;;;;;;17.35;52.20;94166.03;5043890;28;20021;-74
2023/08/08 09:38:56;;;;;;;1.55;1.02;;;;;;;17.49;52.35;94159.41;5043925;28;20022;-73
2023/08/08 09:41:22;;;;;;;3.47;1.10;;;;;;;17.66;53.14;94169.81;5043554;28;20227;-74
2023/08/08 09:43:50;;;;;;;2.42;1.40;;;;;;;17.83;52.38;94168.72;5043762;28;20096;-74
2023/08/08 09:46:15;;;;;;;3.00;1.20;;;;;;;17.94;52.69;94163.53;5043559;28;20033;-74
2023/08/08 09:48:42;;;;;;;1.48;1.13;;;;;;;17.91;50.84;94169.63;5043766;28;20311;-73
2023/08/08 09:51:08;;;;;;;2.10;1.00;;;;;;;17.94;51.29;94150.84;5043733;28;20025;-73
2023/08/08 09:53:34;;;;;;;1.63;1.13;;;;;;;17.86;51.19;94167.22;5043658;28;20026;-73
2023/08/08 09:56:03;;;;;;;4.07;1.10;;;;;;;17.95;52.10;94173.19;5042316;28;20267;-73
2023/08/08 09:58:29;;;;;;;1.60;0.98;;;;;;;18.16;51.53;94165.56;5043184;28;20025;-74
2023/08/08 10:00:55;;;;;;;1.88;0.80;;;;;;;18.17;49.00;94167.13;5043457;28;20021;-74
2023/08/08 10:03:23;;;;;;;1.70;0.90;;;;;;;18.07;48.04;94162.28;5043034;28;20354;-73
2023/08/08 10:05:48;;;;;;;1.45;0.85;;;;;;;18.17;49.17;94161.72;5043110;28;20071;-73
2023/08/08 10:08:18;;;;;;;3.80;1.02;;;;;;;18.27;48.23;94157.69;5041893;28;20057;-73
2023/08/08 10:10:47;;;;;;;1.83;1.20;;;;;;;18.27;48.77;94154.22;5043024;28;20041;-73
2023/08/08 10:13:23;;;;;;;2.33;1.13;;;;;;;18.31;47.84;94163.16;5041907;28;20025;-73
2023/08/08 10:15:50;;;;;;;2.00;1.02;;;;;;;18.29;48.37;94157.34;5042963;28;20025;-73
2023/08/08 10:18:15;;;;;;;2.55;1.40;;;;;;;18.34;48.44;94170.53;5043023;28;20029;-73
2023/08/08 10:20:47;;;;;;;3.92;1.13;;;;;;;18.37;49.16;94156.34;5042991;28;20123;-73
2023/08/08 10:23:15;;;;;;;1.95;1.08;;;;;;;18.40;49.00;94163.75;5042881;28;20029;-74
2023/08/08 10:25:48;;;;;;;1.80;1.05;;;;;;;18.40;48.36;94145.63;5043073;28;20025;-73
2023/08/08 10:28:17;;;;;;;4.60;1.45;;;;;;;18.51;48.99;94151.22;5042961;28;20096;-73
2023/08/08 10:30:46;;;;;;;3.17;1.08;;;;;;;18.63;48.40;94153.00;5042841;28;20115;-73
2023/08/08 10:33:39;;;;;;;4.03;2.72;;;;;;;18.48;47.78;94160.06;5042971;28;20026;-74
2023/08/08 10:36:09;;;;;;;1.98;1.02;;;;;;;18.52;49.44;94147.41;5042991;28;20017;-73
2023/08/08 10:38:50;;;;;;;1.20;0.77;;;;;;;18.58;48.41;94151.38;5042926;28;20028;-74
2023/08/08 10:41:20;;;;;;;1.58;0.90;;;;;;;18.56;47.45;94137.47;5042751;28;20028;-73
2023/08/08 10:43:54;;;;;;;2.08;1.15;;;;;;;18.67;48.11;94134.19;5042560;28;20025;-73
2023/08/08 10:46:28;;;;;;;2.50;1.23;;;;;;;18.77;48.63;94128.19;5042747;28;20029;-73
2023/08/08 10:48:56;;;;;;;2.08;0.90;;;;;;;18.75;47.65;94130.47;5042385;28;20258;-73
2023/08/08 10:51:22;;;;;;;4.75;1.10;;;;;;;18.80;48.54;94124.78;5042426;28;20018;-73
2023/08/08 10:53:52;;;;;;;3.67;1.10;;;;;;;18.82;48.33;94125.22;5042547;28;20025;-73
2023/08/08 10:56:18;;;;;;;4.13;1.40;;;;;;;18.87;47.65;94122.22;5042588;28;20255;-73
2023/08/08 10:58:48;;;;;;;1.70;0.80;;;;;;;18.94;46.37;94133.16;5041412;28;20100;-73
2023/08/08 11:01:14;;;;;;;1.85;0.93;;;;;;;18.94;47.46;94135.84;5042605;28;20214;-73
2023/08/08 11:03:40;;;;;;;2.47;0.80;;;;;;;18.93;46.45;94150.50;5042525;28;20084;-73
2023/08/08 11:06:08;;;;;;;1.92;1.17;;;;;;;18.94;46.33;94130.44;5042636;28;20096;-73
2023/08/08 11:08:34;;;;;;;2.33;1.13;;;;;;;18.97;47.57;94132.44;5042742;28;20030;-73
2023/08/08 11:11:00;;;;;;;1.45;0.90;;;;;;;18.98;46.04;94117.00;5042347;28;20052;-73
2023/08/08 11:13:26;;;;;;;1.42;1.08;;;;;;;19.14;46.88;94119.59;5042662;28;20084;-74
2023/08/08 11:15:52;;;;;;;1.30;0.85;;;;;;;19.23;47.91;94133.63;5043095;28;20029;-74
2023/08/08 11:18:17;;;;;;;4.07;1.17;;;;;;;19.33;46.70;94126.84;5046395;28;20040;-74
2023/08/08 11:20:44;;;;;;;2.25;1.10;;;;;;;19.38;46.10;94129.25;5046478;28;20013;-74
2023/08/08 11:23:12;;;;;;;1.52;0.90;;;;;;;19.31;44.84;94121.78;5046315;28;20357;-74
2023/08/08 11:25:43;;;;;;;3.90;1.05;;;;;;;19.20;45.96;94128.97;5046264;28;20025;-74
2023/08/08 11:28:10;;;;;;;1.35;0.90;;;;;;;19.22;45.58;94118.56;5046270;28;20021;-74
2023/08/08 11:30:39;;;;;;;1.25;0.70;;;;;;;19.15;46.58;94121.94;5046420;28;20033;-74